Time;durP1;ratioP1;P1;durP2;ratioP2;P2;SDS_P1;SDS_P2;PMS_P1;PMS_P2;Temp;Humidity;BMP_temperature;BMP_pressure;BME280_temperature;BME280_humidity;BME280_pressure;Samples;Min_cycle;Max_cycle;Signal;HPM_P1;HPM_P2
2022/03/22 00:01:00;;;;;;;13.65;11.80;;;;;;;;;;5064855;28;20225;-67
2022/03/22 00:03:26;;;;;;;19.55;12.05;;;;;;;;;;5064949;28;20219;-67
2022/03/22 00:05:54;;;;;;;14.57;11.65;;;;;;;;;;5064680;28;20233;-67
2022/03/22 00:08:21;;;;;;;14.43;11.48;;;;;;;;;;5064311;28;20204;-67
2022/03/22 00:10:47;;;;;;;16.10;11.93;;;;;;;;;;5064517;28;20197;-67
2022/03/22 00:13:14;;;;;;;17.45;13.43;;;;;;;;;;5064776;28;20197;-67
2022/03/22 00:15:41;;;;;;;16.95;12.45;;;;;;;;;;5064485;28;20231;-67
2022/03/22 00:18:08;;;;;;;17.00;13.40;;;;;;;;;;5064509;28;20275;-67
2022/03/22 00:20:34;;;;;;;17.67;12.35;;;;;;;;;;5064423;28;20236;-67
2022/03/22 00:23:01;;;;;;;19.08;13.25;;;;;;;;;;5064323;28;20197;-67
2022/03/22 00:25:27;;;;;;;17.60;12.93;;;;;;;;;;5064130;28;20220;-67
2022/03/22 00:27:55;;;;;;;19.67;13.30;;;;;;;;;;5064350;28;20497;-67
2022/03/22 00:30:22;;;;;;;18.83;13.10;;;;;;;;;;5064464;28;20197;-67
2022/03/22 00:32:51;;;;;;;17.38;12.77;;;;;;;;;;5064251;28;20205;-67
2022/03/22 00:35:18;;;;;;;19.55;13.25;;;;;;;;;;5064220;28;20264;-67
2022/03/22 00:37:46;;;;;;;19.45;13.25;;;;;;;;;;5064368;28;20240;-67
2022/03/22 00:40:13;;;;;;;14.73;12.38;;;;;;;;;;5064029;28;20434;-67
2022/03/22 00:42:39;;;;;;;16.17;12.23;;;;;;;;;;5063964;28;20214;-67
2022/03/22 00:45:06;;;;;;;17.95;12.43;;;;;;;;;;5063880;28;20201;-67
2022/03/22 00:47:32;;;;;;;16.67;12.98;;;;;;;;;;5063606;28;20204;-67
2022/03/22 00:50:00;;;;;;;17.05;12.45;;;;;;;;;;5063795;28;20209;-67
2022/03/22 00:52:27;;;;;;;17.45;13.00;;;;;;;;;;5063737;28;20197;-67
2022/03/22 00:54:53;;;;;;;16.05;12.45;;;;;;;;;;5063657;28;20197;-67
2022/03/22 00:57:20;;;;;;;17.20;12.45;;;;;;;;;;5063648;28;20276;-67
2022/03/22 01:00:05;;;;;;;16.55;12.45;;;;;;;;;;5064017;28;20197;-67
2022/03/22 01:02:34;;;;;;;16.10;12.85;;;;;;;;;;5063559;28;20197;-67
2022/03/22 01:05:01;;;;;;;20.83;13.10;;;;;;;;;;5063357;28;20292;-67
2022/03/22 01:07:29;;;;;;;16.83;13.05;;;;;;;;;;5063349;28;20197;-67
2022/03/22 01:09:55;;;;;;;16.45;12.80;;;;;;;;;;5063643;28;20204;-67
2022/03/22 01:12:22;;;;;;;16.88;12.63;;;;;;;;;;5063755;28;20201;-67
2022/03/22 01:14:49;;;;;;;17.38;12.38;;;;;;;;;;5063366;28;20195;-67
2022/03/22 01:17:16;;;;;;;16.10;12.25;;;;;;;;;;5063624;28;20312;-67
2022/03/22 01:19:42;;;;;;;18.20;13.82;;;;;;;;;;5063293;28;20205;-67
2022/03/22 01:22:10;;;;;;;19.40;12.63;;;;;;;;;;5063329;28;20197;-67
2022/03/22 01:24:36;;;;;;;19.88;13.55;;;;;;;;;;5063181;28;20264;-67
2022/03/22 01:27:02;;;;;;;18.58;12.50;;;;;;;;;;5062995;28;20220;-67
2022/03/22 01:29:29;;;;;;;17.48;13.05;;;;;;;;;;5063139;28;20253;-67
2022/03/22 01:31:55;;;;;;;16.05;12.57;;;;;;;;;;5063057;28;20197;-67
2022/03/22 01:34:21;;;;;;;19.85;13.25;;;;;;;;;;5063027;28;20197;-67
2022/03/22 01:36:47;;;;;;;18.85;13.80;;;;;;;;;;5062907;28;20238;-67
2022/03/22 01:39:15;;;;;;;22.35;13.60;;;;;;;;;;5063164;28;20197;-67
2022/03/22 01:41:41;;;;;;;20.55;13.32;;;;;;;;;;5063113;28;20197;-67
2022/03/22 01:44:08;;;;;;;21.10;13.45;;;;;;;;;;5062808;28;20236;-67
2022/03/22 01:46:35;;;;;;;19.83;13.82;;;;;;;;;;5062402;28;20271;-67
2022/03/22 01:49:01;;;;;;;21.30;14.68;;;;;;;;;;5063018;28;20197;-67
2022/03/22 01:51:31;;;;;;;16.67;12.80;;;;;;;;;;5062827;28;20223;-67
2022/03/22 01:53:58;;;;;;;20.38;14.30;;;;;;;;;;5062878;28;20520;-67
2022/03/22 01:56:25;;;;;;;20.63;13.45;;;;;;;;;;5062740;28;20196;-66
2022/03/22 01:58:55;;;;;;;18.15;12.95;;;;;;;;;;5062735;28;20513;-66
2022/03/22 02:06:52;;;;;;;17.08;13.18;;;;;;;;;;5062178;28;20304;-66
2022/03/22 02:09:18;;;;;;;18.20;14.23;;;;;;;;;;5062488;28;20206;-66
2022/03/22 02:11:46;;;;;;;21.98;14.73;;;;;;;;;;5062233;28;20200;-67
2022/03/22 02:14:12;;;;;;;18.98;14.10;;;;;;;;;;5062256;28;20235;-67
2022/03/22 02:16:38;;;;;;;20.58;13.90;;;;;;;;;;5062116;28;20193;-66
2022/03/22 02:19:08;;;;;;;18.33;14.10;;;;;;;;;;5062390;28;20304;-66
2022/03/22 02:21:36;;;;;;;20.83;14.30;;;;;;;;;;5062246;28;20197;-66
2022/03/22 02:24:04;;;;;;;20.33;13.93;;;;;;;;;;5062221;28;20234;-66
2022/03/22 02:26:30;;;;;;;19.05;13.48;;;;;;;;;;5062488;28;20221;-66
2022/03/22 02:28:56;;;;;;;19.80;14.35;;;;;;;;;;5062268;28;20204;-66
2022/03/22 02:31:23;;;;;;;19.08;14.38;;;;;;;;;;5062442;28;20311;-67
2022/03/22 02:33:49;;;;;;;20.15;13.82;;;;;;;;;;5061529;28;20422;-67
2022/03/22 02:36:16;;;;;;;18.38;13.23;;;;;;;;;;5061980;28;20315;-67
2022/03/22 02:38:42;;;;;;;21.20;14.30;;;;;;;;;;5062349;28;20197;-66
2022/03/22 02:41:14;;;;;;;18.70;13.48;;;;;;;;;;5062052;28;20504;-66
2022/03/22 02:43:41;;;;;;;22.92;13.80;;;;;;;;;;5061937;28;20221;-66
2022/03/22 02:46:07;;;;;;;21.25;14.60;;;;;;;;;;5061727;28;20225;-66
2022/03/22 02:48:34;;;;;;;20.40;14.50;;;;;;;;;;5061832;28;20235;-66
2022/03/22 02:51:00;;;;;;;19.10;13.27;;;;;;;;;;5061931;28;20197;-66
2022/03/22 02:53:27;;;;;;;22.85;14.07;;;;;;;;;;5061868;28;20208;-66
2022/03/22 02:55:53;;;;;;;18.63;13.93;;;;;;;;;;5062033;28;20553;-66
2022/03/22 02:58:21;;;;;;;19.27;13.63;;;;;;;;;;5061644;28;20201;-66
2022/03/22 03:00:47;;;;;;;19.77;14.23;;;;;;;;;;5061758;28;20566;-66
2022/03/22 03:03:14;;;;;;;19.92;13.73;;;;;;;;;;5061807;28;20205;-66
2022/03/22 03:05:40;;;;;;;19.55;13.90;;;;;;;;;;5061742;28;20257;-66
2022/03/22 03:08:07;;;;;;;21.05;13.82;;;;;;;;;;5061933;28;20197;-66
2022/03/22 03:10:33;;;;;;;18.67;13.98;;;;;;;;;;5062031;28;20410;-66
2022/03/22 03:13:00;;;;;;;18.88;14.48;;;;;;;;;;5061692;28;20204;-66
2022/03/22 03:15:28;;;;;;;22.70;14.75;;;;;;;;;;5061630;28;20236;-66
2022/03/22 03:17:54;;;;;;;20.13;13.40;;;;;;;;;;5061647;28;20204;-66
2022/03/22 03:20:21;;;;;;;23.35;14.50;;;;;;;;;;5061767;28;20197;-66
2022/03/22 03:22:47;;;;;;;25.08;16.00;;;;;;;;;;5061717;28;20202;-66
2022/03/22 03:25:13;;;;;;;20.25;14.98;;;;;;;;;;5061613;28;20209;-66
2022/03/22 03:27:40;;;;;;;19.55;15.05;;;;;;;;;;5063245;28;20229;-66
2022/03/22 03:30:07;;;;;;;23.13;16.25;;;;;;;;;;5065390;28;20311;-66
2022/03/22 03:32:34;;;;;;;22.23;15.88;;;;;;;;;;5065278;28;20242;-66
2022/03/22 03:35:01;;;;;;;22.98;16.58;;;;;;;;;;5065408;28;20235;-66
2022/03/22 03:37:28;;;;;;;27.52;17.00;;;;;;;;;;5065228;28;20238;-66
2022/03/22 03:39:55;;;;;;;26.35;17.30;;;;;;;;;;5065183;28;20530;-66
2022/03/22 03:42:21;;;;;;;21.27;15.70;;;;;;;;;;5065183;28;20505;-66
2022/03/22 03:47:31;;;;;;;21.77;16.60;;;;;;;;;;5064895;28;20223;-66
2022/03/22 03:50:00;;;;;;;23.48;16.60;;;;;;;;;;5065360;28;20530;-66
2022/03/22 03:52:27;;;;;;;22.92;16.20;;;;;;;;;;5065106;28;20201;-66
2022/03/22 03:54:54;;;;;;;23.48;15.07;;;;;;;;;;5064881;28;20516;-66
2022/03/22 03:57:21;;;;;;;19.42;14.93;;;;;;;;;;5064871;28;20204;-66
2022/03/22 03:59:47;;;;;;;21.08;14.95;;;;;;;;;;5065021;28;20204;-66
2022/03/22 04:02:13;;;;;;;22.52;15.00;;;;;;;;;;5065125;28;20197;-66
2022/03/22 04:04:40;;;;;;;26.17;15.35;;;;;;;;;;5064836;28;20243;-66
2022/03/22 04:07:08;;;;;;;22.55;16.17;;;;;;;;;;5064424;28;20243;-66
2022/03/22 04:09:35;;;;;;;18.73;14.43;;;;;;;;;;5064646;28;20234;-66
2022/03/22 04:12:02;;;;;;;18.40;14.73;;;;;;;;;;5064468;28;20251;-66
2022/03/22 04:14:28;;;;;;;22.25;15.10;;;;;;;;;;5064935;28;20219;-67
2022/03/22 04:16:56;;;;;;;21.45;14.88;;;;;;;;;;5064382;28;20239;-67
2022/03/22 04:19:22;;;;;;;22.77;14.75;;;;;;;;;;5064622;28;20563;-66
2022/03/22 04:21:48;;;;;;;20.70;14.70;;;;;;;;;;5064588;28;20196;-67
2022/03/22 04:24:16;;;;;;;18.83;14.98;;;;;;;;;;5064247;28;20211;-67
2022/03/22 04:26:43;;;;;;;19.15;14.32;;;;;;;;;;5064206;28;20227;-66
2022/03/22 04:34:36;;;;;;;21.70;15.10;;;;;;;;;;5063791;28;20307;-66
2022/03/22 04:37:03;;;;;;;19.95;14.32;;;;;;;;;;5064139;28;20193;-66
2022/03/22 04:39:31;;;;;;;24.10;15.30;;;;;;;;;;5063748;28;20243;-66
2022/03/22 04:41:58;;;;;;;21.85;14.93;;;;;;;;;;5063950;28;20191;-66
2022/03/22 04:44:24;;;;;;;24.75;16.38;;;;;;;;;;5064091;28;20201;-66
2022/03/22 04:46:51;;;;;;;21.10;15.15;;;;;;;;;;5063676;28;20217;-66
2022/03/22 04:49:17;;;;;;;20.95;15.32;;;;;;;;;;5063933;28;20237;-66
2022/03/22 04:57:12;;;;;;;22.17;15.95;;;;;;;;;;5063589;28;20253;-66
2022/03/22 04:59:38;;;;;;;20.83;15.45;;;;;;;;;;5063611;28;20254;-66
2022/03/22 05:02:05;;;;;;;20.23;15.18;;;;;;;;;;5064080;28;20197;-66
2022/03/22 05:04:31;;;;;;;24.45;15.32;;;;;;;;;;5063953;28;20242;-66
2022/03/22 05:06:57;;;;;;;21.00;15.25;;;;;;;;;;5063409;28;20225;-66
2022/03/22 05:09:24;;;;;;;19.95;14.38;;;;;;;;;;5063590;28;20197;-66
2022/03/22 05:11:50;;;;;;;20.67;15.15;;;;;;;;;;5063610;28;20201;-66
2022/03/22 05:14:18;;;;;;;20.30;14.52;;;;;;;;;;5063322;28;20205;-66
2022/03/22 05:16:45;;;;;;;20.08;15.05;;;;;;;;;;5063514;28;20493;-66
2022/03/22 05:19:13;;;;;;;20.95;14.93;;;;;;;;;;5063600;28;20213;-67
2022/03/22 05:21:39;;;;;;;22.42;15.50;;;;;;;;;;5063623;28;20516;-67
2022/03/22 05:24:06;;;;;;;19.20;14.85;;;;;;;;;;5063165;28;20374;-67
2022/03/22 05:26:32;;;;;;;20.52;14.65;;;;;;;;;;5063039;28;20523;-67
2022/03/22 05:28:59;;;;;;;24.75;16.52;;;;;;;;;;5063156;28;20205;-67
2022/03/22 05:31:26;;;;;;;23.15;16.05;;;;;;;;;;5063413;28;20271;-67
2022/03/22 05:33:53;;;;;;;21.23;15.27;;;;;;;;;;5063173;28;20235;-67
2022/03/22 05:36:20;;;;;;;22.63;16.20;;;;;;;;;;5062678;28;20193;-67
2022/03/22 05:38:46;;;;;;;24.80;17.02;;;;;;;;;;5062987;28;20204;-67
2022/03/22 05:41:12;;;;;;;24.90;15.52;;;;;;;;;;5062969;28;20201;-67
2022/03/22 05:43:39;;;;;;;30.50;15.68;;;;;;;;;;5063340;28;20208;-67
2022/03/22 05:46:05;;;;;;;22.45;16.40;;;;;;;;;;5062922;28;20247;-67
2022/03/22 05:48:33;;;;;;;23.90;16.38;;;;;;;;;;5062659;28;20213;-67
2022/03/22 05:50:59;;;;;;;23.73;15.98;;;;;;;;;;5062006;28;20243;-67
2022/03/22 05:53:26;;;;;;;25.33;15.50;;;;;;;;;;5062630;28;20205;-67
2022/03/22 05:55:52;;;;;;;26.73;15.80;;;;;;;;;;5062457;28;20420;-67
2022/03/22 05:58:18;;;;;;;20.33;15.55;;;;;;;;;;5062672;28;20201;-67
2022/03/22 06:00:44;;;;;;;21.67;16.30;;;;;;;;;;5062896;28;20196;-67
2022/03/22 06:03:11;;;;;;;22.60;15.90;;;;;;;;;;5062813;28;20204;-67
2022/03/22 06:05:39;;;;;;;23.13;16.00;;;;;;;;;;5062672;28;20217;-67
2022/03/22 06:08:06;;;;;;;23.63;15.15;;;;;;;;;;5062306;28;20213;-67
2022/03/22 06:10:32;;;;;;;26.10;15.02;;;;;;;;;;5062596;28;20197;-67
2022/03/22 06:12:59;;;;;;;20.85;15.50;;;;;;;;;;5062860;28;20205;-67
2022/03/22 06:15:26;;;;;;;23.45;15.65;;;;;;;;;;5062922;28;20259;-67
2022/03/22 06:17:55;;;;;;;22.60;15.82;;;;;;;;;;5062314;28;20411;-67
2022/03/22 06:20:23;;;;;;;24.23;16.92;;;;;;;;;;5062500;28;20365;-67
2022/03/22 06:22:51;;;;;;;22.02;15.52;;;;;;;;;;5062315;28;20512;-67
2022/03/22 06:25:18;;;;;;;25.27;15.88;;;;;;;;;;5062324;28;20213;-67
2022/03/22 06:27:51;;;;;;;22.45;16.15;;;;;;;;;;5062090;28;20254;-67
2022/03/22 06:30:17;;;;;;;23.75;15.30;;;;;;;;;;5062535;28;20197;-67
2022/03/22 06:32:45;;;;;;;19.88;15.18;;;;;;;;;;5062383;28;20197;-67
2022/03/22 06:35:12;;;;;;;20.70;15.18;;;;;;;;;;5062360;28;20204;-67
2022/03/22 06:37:38;;;;;;;22.10;15.13;;;;;;;;;;5061893;28;20396;-68
2022/03/22 06:40:08;;;;;;;24.70;16.30;;;;;;;;;;5062409;28;20243;-68
2022/03/22 06:42:34;;;;;;;22.27;15.48;;;;;;;;;;5062182;28;20197;-68
2022/03/22 06:45:01;;;;;;;21.23;15.40;;;;;;;;;;5062315;28;20197;-67
2022/03/22 06:47:27;;;;;;;25.23;17.05;;;;;;;;;;5061903;28;20225;-67
2022/03/22 06:49:53;;;;;;;28.02;18.20;;;;;;;;;;5062569;28;20201;-68
2022/03/22 06:52:20;;;;;;;31.48;17.55;;;;;;;;;;5061944;28;20415;-67
2022/03/22 06:54:46;;;;;;;28.40;16.27;;;;;;;;;;5062274;28;20500;-67
2022/03/22 06:57:14;;;;;;;27.50;16.52;;;;;;;;;;5061849;28;20507;-67
2022/03/22 06:59:40;;;;;;;23.88;16.75;;;;;;;;;;5061967;28;20279;-67
2022/03/22 07:02:06;;;;;;;27.30;16.45;;;;;;;;;;5064298;28;20252;-67
2022/03/22 07:04:32;;;;;;;24.88;16.35;;;;;;;;;;5065873;28;20189;-67
2022/03/22 07:06:59;;;;;;;26.85;17.58;;;;;;;;;;5065280;28;20217;-67
2022/03/22 07:09:25;;;;;;;26.75;17.42;;;;;;;;;;5065854;28;20213;-67
2022/03/22 07:11:52;;;;;;;30.27;17.77;;;;;;;;;;5065820;28;20282;-68
2022/03/22 07:14:20;;;;;;;29.70;18.88;;;;;;;;;;5065833;28;20224;-68
2022/03/22 07:16:47;;;;;;;31.80;20.35;;;;;;;;;;5065397;28;20197;-68
2022/03/22 07:19:14;;;;;;;32.58;21.88;;;;;;;;;;5065358;28;20243;-67
2022/03/22 07:21:40;;;;;;;34.90;22.80;;;;;;;;;;5065641;28;20204;-67
2022/03/22 07:24:06;;;;;;;36.35;23.30;;;;;;;;;;5065579;28;20223;-68
2022/03/22 07:26:32;;;;;;;26.75;17.77;;;;;;;;;;5065220;28;20197;-68
2022/03/22 07:28:59;;;;;;;21.98;16.35;;;;;;;;;;5065507;28;20543;-68
2022/03/22 07:31:26;;;;;;;27.25;15.75;;;;;;;;;;5065409;28;20210;-68
2022/03/22 07:33:53;;;;;;;21.45;15.73;;;;;;;;;;5065336;28;20201;-68
2022/03/22 07:36:19;;;;;;;32.35;17.20;;;;;;;;;;5065165;28;20292;-67
2022/03/22 07:38:46;;;;;;;25.90;17.17;;;;;;;;;;5065533;28;20269;-68
2022/03/22 07:41:13;;;;;;;25.27;16.77;;;;;;;;;;5065593;28;20197;-68
2022/03/22 07:43:40;;;;;;;21.45;16.38;;;;;;;;;;5065315;28;20532;-68
2022/03/22 07:46:07;;;;;;;29.80;16.58;;;;;;;;;;5064897;28;20243;-68
2022/03/22 07:48:35;;;;;;;26.05;16.27;;;;;;;;;;5064866;28;20381;-68
2022/03/22 07:53:45;;;;;;;22.88;15.98;;;;;;;;;;5064973;28;20256;-68
2022/03/22 07:56:12;;;;;;;23.95;16.40;;;;;;;;;;5064626;28;20243;-68
2022/03/22 07:58:38;;;;;;;24.65;14.80;;;;;;;;;;5064848;28;20197;-68
2022/03/22 08:01:04;;;;;;;26.50;16.45;;;;;;;;;;5064687;28;20197;-68
2022/03/22 08:03:31;;;;;;;24.08;14.95;;;;;;;;;;5064949;28;20386;-68
2022/03/22 08:06:00;;;;;;;23.92;16.35;;;;;;;;;;5064418;28;20255;-68
2022/03/22 08:08:26;;;;;;;29.98;16.27;;;;;;;;;;5064600;28;20221;-68
2022/03/22 08:10:52;;;;;;;23.70;16.65;;;;;;;;;;5064694;28;20445;-68
2022/03/22 08:13:18;;;;;;;21.67;15.52;;;;;;;;;;5063735;28;20197;-68
2022/03/22 08:15:45;;;;;;;23.73;15.88;;;;;;;;;;5064404;28;20243;-68
2022/03/22 08:18:11;;;;;;;25.95;15.73;;;;;;;;;;5064083;28;20195;-68
2022/03/22 08:20:37;;;;;;;24.58;15.32;;;;;;;;;;5064526;28;20243;-68
2022/03/22 08:23:06;;;;;;;25.30;15.38;;;;;;;;;;5064568;28;20235;-68
2022/03/22 08:25:33;;;;;;;30.83;17.25;;;;;;;;;;5064212;28;20212;-68
2022/03/22 08:28:00;;;;;;;23.77;15.02;;;;;;;;;;5063936;28;20221;-68
2022/03/22 08:30:27;;;;;;;22.85;15.07;;;;;;;;;;5064315;28;20519;-68
2022/03/22 08:32:55;;;;;;;19.92;15.05;;;;;;;;;;5064148;28;20236;-68
2022/03/22 08:35:23;;;;;;;21.40;14.52;;;;;;;;;;5064251;28;20546;-68
2022/03/22 08:37:50;;;;;;;19.50;14.85;;;;;;;;;;5063970;28;20215;-68
2022/03/22 08:40:17;;;;;;;20.30;13.98;;;;;;;;;;5064562;28;20504;-69
2022/03/22 08:42:44;;;;;;;24.95;15.00;;;;;;;;;;5065695;28;20197;-69
2022/03/22 08:45:11;;;;;;;21.30;14.05;;;;;;;;;;5064626;28;20501;-68
2022/03/22 08:47:38;;;;;;;23.92;15.10;;;;;;;;;;5064024;28;20344;-68
2022/03/22 08:50:05;;;;;;;26.17;15.65;;;;;;;;;;5064039;28;20224;-66
2022/03/22 08:52:31;;;;;;;29.73;15.95;;;;;;;;;;5063606;28;20287;-66
2022/03/22 08:54:57;;;;;;;26.17;15.88;;;;;;;;;;5063701;28;20197;-66
2022/03/22 08:57:25;;;;;;;22.52;14.68;;;;;;;;;;5063651;28;20200;-68
2022/03/22 08:59:51;;;;;;;20.58;14.93;;;;;;;;;;5063770;28;20208;-65
2022/03/22 09:02:17;;;;;;;22.58;15.27;;;;;;;;;;5063291;28;20492;-66
2022/03/22 09:07:28;;;;;;;28.88;15.07;;;;;;;;;;5062816;28;20191;-67
2022/03/22 09:09:54;;;;;;;21.10;14.85;;;;;;;;;;5063186;28;20426;-67
2022/03/22 09:12:20;;;;;;;23.88;15.52;;;;;;;;;;5063229;28;20509;-67
2022/03/22 09:14:50;;;;;;;22.08;15.35;;;;;;;;;;5062631;28;20197;-67
2022/03/22 09:17:16;;;;;;;23.10;15.23;;;;;;;;;;5062763;28;20204;-67
2022/03/22 09:19:42;;;;;;;23.95;16.38;;;;;;;;;;5062908;28;20204;-67
2022/03/22 09:22:10;;;;;;;24.00;15.07;;;;;;;;;;5062674;28;20197;-66
2022/03/22 09:24:36;;;;;;;20.17;14.45;;;;;;;;;;5063279;28;20219;-67
2022/03/22 09:27:03;;;;;;;22.67;14.88;;;;;;;;;;5063080;28;20203;-67
2022/03/22 09:29:29;;;;;;;19.77;14.10;;;;;;;;;;5063146;28;20224;-67
2022/03/22 09:31:56;;;;;;;22.30;15.05;;;;;;;;;;5063115;28;20336;-67
2022/03/22 09:34:24;;;;;;;24.17;14.75;;;;;;;;;;5063414;28;20357;-67
2022/03/22 09:36:50;;;;;;;25.88;15.10;;;;;;;;;;5062525;28;20197;-67
2022/03/22 09:39:17;;;;;;;18.02;13.98;;;;;;;;;;5062951;28;20406;-67
2022/03/22 09:41:45;;;;;;;28.45;15.55;;;;;;;;;;5063009;28;20231;-67
2022/03/22 09:44:11;;;;;;;20.67;15.38;;;;;;;;;;5062870;28;20226;-67
2022/03/22 09:46:37;;;;;;;23.27;14.98;;;;;;;;;;5062548;28;20219;-67
2022/03/22 09:49:08;;;;;;;20.45;15.60;;;;;;;;;;5062673;28;20225;-67
2022/03/22 09:51:48;;;;;;;23.65;15.30;;;;;;;;;;5062603;28;20204;-67
2022/03/22 09:54:15;;;;;;;20.95;15.05;;;;;;;;;;5062815;28;20200;-67
2022/03/22 09:56:42;;;;;;;25.25;16.02;;;;;;;;;;5062639;28;20197;-67
2022/03/22 09:59:09;;;;;;;20.33;14.95;;;;;;;;;;5063009;28;20228;-67
2022/03/22 10:01:35;;;;;;;22.15;15.38;;;;;;;;;;5062515;28;20197;-67
2022/03/22 10:04:02;;;;;;;22.58;15.65;;;;;;;;;;5062414;28;20197;-67
2022/03/22 10:06:30;;;;;;;23.75;16.77;;;;;;;;;;5062347;28;20217;-67
2022/03/22 10:08:56;;;;;;;20.52;15.48;;;;;;;;;;5062695;28;20229;-67
2022/03/22 10:11:23;;;;;;;22.08;15.82;;;;;;;;;;5062429;28;20242;-67
2022/03/22 10:13:52;;;;;;;19.35;15.07;;;;;;;;;;5062463;28;20235;-67
2022/03/22 10:16:19;;;;;;;23.00;15.73;;;;;;;;;;5062463;28;20236;-67
2022/03/22 10:18:45;;;;;;;22.08;15.90;;;;;;;;;;5062750;28;20193;-67
2022/03/22 10:21:11;;;;;;;19.10;15.85;;;;;;;;;;5062487;28;20204;-67
2022/03/22 10:23:50;;;;;;;21.60;15.73;;;;;;;;;;5062296;28;20242;-67
2022/03/22 10:26:16;;;;;;;25.77;17.33;;;;;;;;;;5062047;28;20197;-67
2022/03/22 10:28:49;;;;;;;27.77;17.08;;;;;;;;;;5061846;28;20225;-67
2022/03/22 10:31:16;;;;;;;21.13;16.13;;;;;;;;;;5062053;28;20197;-67
2022/03/22 10:33:48;;;;;;;24.73;15.23;;;;;;;;;;5061914;28;20289;-67
2022/03/22 10:36:15;;;;;;;27.05;16.40;;;;;;;;;;5061386;28;20197;-67
2022/03/22 10:38:53;;;;;;;25.27;16.25;;;;;;;;;;5053054;28;20193;-67
2022/03/22 10:41:24;;;;;;;28.98;16.42;;;;;;;;;;5052474;28;20193;-67
2022/03/22 10:44:00;;;;;;;24.33;17.38;;;;;;;;;;5051552;28;20202;-67
2022/03/22 10:46:27;;;;;;;21.45;16.02;;;;;;;;;;5052652;28;20196;-67
2022/03/22 10:49:00;;;;;;;20.42;15.65;;;;;;;;;;5051998;28;20324;-67
2022/03/22 10:51:31;;;;;;;22.73;15.93;;;;;;;;;;5052749;28;20534;-67
2022/03/22 10:53:59;;;;;;;22.45;15.50;;;;;;;;;;5053281;28;20424;-67
2022/03/22 10:56:26;;;;;;;28.73;16.77;;;;;;;;;;5052623;28;20246;-68
2022/03/22 10:58:52;;;;;;;23.02;15.73;;;;;;;;;;5051980;28;20194;-69
2022/03/22 11:01:20;;;;;;;28.67;17.65;;;;;;;;;;5045488;28;20304;-69
2022/03/22 11:03:48;;;;;;;22.08;15.82;;;;;;;;;;5042116;28;20229;-68
2022/03/22 11:06:16;;;;;;;21.45;16.30;;;;;;;;;;5041651;28;20271;-67
2022/03/22 11:08:43;;;;;;;22.67;17.20;;;;;;;;;;5042020;28;20221;-67
2022/03/22 11:11:10;;;;;;;23.05;16.45;;;;;;;;;;5041905;28;20236;-67
2022/03/22 11:13:37;;;;;;;28.88;16.52;;;;;;;;;;5042088;28;20201;-67
2022/03/22 11:16:03;;;;;;;21.75;15.63;;;;;;;;;;5041680;28;20198;-67
2022/03/22 11:18:30;;;;;;;22.60;17.02;;;;;;;;;;5041651;28;20399;-67
2022/03/22 11:20:57;;;;;;;20.90;15.77;;;;;;;;;;5041492;28;20268;-67
2022/03/22 11:23:24;;;;;;;24.17;17.23;;;;;;;;;;5041701;28;20197;-67
2022/03/22 11:25:51;;;;;;;23.17;16.58;;;;;;;;;;5041922;28;20440;-67
2022/03/22 11:28:19;;;;;;;24.10;15.48;;;;;;;;;;5041481;28;20498;-67
2022/03/22 11:30:46;;;;;;;29.48;16.73;;;;;;;;;;5041723;28;20533;-67
2022/03/22 11:35:59;;;;;;;22.35;15.90;;;;;;;;;;5041462;28;20195;-67
2022/03/22 11:38:39;;;;;;;21.67;14.95;;;;;;;;;;5041630;28;20233;-68
2022/03/22 11:43:51;;;;;;;21.48;16.40;;;;;;;;;;5041406;28;20252;-68
2022/03/22 11:46:17;;;;;;;22.23;16.23;;;;;;;;;;5041493;28;20197;-68
2022/03/22 11:48:44;;;;;;;19.98;15.45;;;;;;;;;;5043439;28;20222;-68
2022/03/22 11:51:10;;;;;;;25.88;16.13;;;;;;;;;;5045061;28;20198;-68
2022/03/22 11:53:43;;;;;;;20.05;15.27;;;;;;;;;;5044941;28;20198;-68
2022/03/22 11:56:09;;;;;;;18.27;15.48;;;;;;;;;;5044641;28;20453;-68
2022/03/22 11:58:36;;;;;;;21.00;15.55;;;;;;;;;;5045083;28;20328;-68
2022/03/22 12:01:04;;;;;;;20.08;15.45;;;;;;;;;;5045159;28;20197;-68
2022/03/22 12:03:31;;;;;;;23.05;15.23;;;;;;;;;;5045009;28;20527;-68
2022/03/22 12:05:58;;;;;;;21.60;15.77;;;;;;;;;;5060076;28;20217;-68
2022/03/22 12:08:26;;;;;;;30.13;15.82;;;;;;;;;;5064586;28;20201;-68
2022/03/22 12:10:54;;;;;;;24.35;15.40;;;;;;;;;;5064226;28;20258;-68
2022/03/22 12:13:20;;;;;;;22.75;16.30;;;;;;;;;;5064299;28;20197;-68
2022/03/22 12:15:47;;;;;;;20.90;16.58;;;;;;;;;;5064190;28;20512;-68
2022/03/22 12:18:15;;;;;;;22.77;16.30;;;;;;;;;;5063881;28;20392;-68
2022/03/22 12:20:43;;;;;;;27.27;18.20;;;;;;;;;;5063877;28;20243;-68
2022/03/22 12:23:09;;;;;;;28.10;17.10;;;;;;;;;;5063617;28;20197;-68
2022/03/22 12:25:36;;;;;;;26.25;15.73;;;;;;;;;;5063867;28;20216;-68
2022/03/22 12:28:04;;;;;;;25.85;16.67;;;;;;;;;;5063922;28;20197;-68
2022/03/22 12:30:31;;;;;;;20.98;16.08;;;;;;;;;;5063819;28;20224;-68
2022/03/22 12:32:59;;;;;;;21.98;16.08;;;;;;;;;;5063632;28;20206;-67
2022/03/22 12:35:27;;;;;;;23.05;16.05;;;;;;;;;;5063857;28;20203;-68
2022/03/22 12:37:53;;;;;;;18.05;14.93;;;;;;;;;;5063360;28;20243;-68
2022/03/22 12:40:20;;;;;;;25.98;17.27;;;;;;;;;;5064035;28;20181;-68
2022/03/22 12:42:47;;;;;;;32.70;17.58;;;;;;;;;;5063850;28;20209;-67
2022/03/22 12:45:14;;;;;;;23.63;16.35;;;;;;;;;;5063387;28;20524;-68
2022/03/22 12:47:42;;;;;;;21.45;16.52;;;;;;;;;;5063759;28;20197;-68
2022/03/22 12:50:09;;;;;;;25.83;17.20;;;;;;;;;;5063749;28;20540;-67
2022/03/22 12:52:37;;;;;;;25.80;18.27;;;;;;;;;;5063417;28;20373;-67
2022/03/22 12:55:03;;;;;;;23.45;16.70;;;;;;;;;;5063460;28;20197;-67
2022/03/22 12:57:30;;;;;;;24.95;17.13;;;;;;;;;;5063254;28;20224;-67
2022/03/22 12:59:56;;;;;;;24.05;17.75;;;;;;;;;;5062902;28;20484;-67
2022/03/22 13:02:23;;;;;;;23.38;17.27;;;;;;;;;;5063184;28;20197;-67
2022/03/22 13:04:50;;;;;;;29.42;17.05;;;;;;;;;;5063097;28;20204;-67
2022/03/22 13:07:20;;;;;;;28.58;16.38;;;;;;;;;;5062889;28;20200;-68
2022/03/22 13:12:33;;;;;;;24.90;16.65;;;;;;;;;;5063265;28;20227;-68
2022/03/22 13:15:04;;;;;;;24.80;16.58;;;;;;;;;;5062919;28;20379;-67
2022/03/22 13:17:31;;;;;;;18.77;16.50;;;;;;;;;;5062507;28;20201;-67
2022/03/22 13:19:58;;;;;;;20.83;15.90;;;;;;;;;;5062538;28;20193;-67
2022/03/22 13:22:27;;;;;;;23.38;16.25;;;;;;;;;;5062736;28;20197;-67
2022/03/22 13:25:08;;;;;;;25.55;17.17;;;;;;;;;;5062692;28;20205;-67
2022/03/22 13:27:34;;;;;;;21.90;15.43;;;;;;;;;;5062433;28;20427;-67
2022/03/22 13:30:01;;;;;;;24.58;16.77;;;;;;;;;;5062851;28;20555;-68
2022/03/22 13:32:28;;;;;;;27.88;16.80;;;;;;;;;;5063105;28;20206;-68
2022/03/22 13:34:59;;;;;;;21.38;16.58;;;;;;;;;;5063319;28;20197;-68
2022/03/22 13:37:25;;;;;;;22.27;15.80;;;;;;;;;;5063015;28;20205;-68
2022/03/22 13:40:02;;;;;;;23.40;16.05;;;;;;;;;;5063045;28;20315;-68
2022/03/22 13:42:30;;;;;;;24.95;15.75;;;;;;;;;;5062890;28;20235;-68
2022/03/22 13:44:58;;;;;;;26.02;15.77;;;;;;;;;;5062826;28;20243;-68
2022/03/22 13:47:29;;;;;;;19.15;15.20;;;;;;;;;;5062542;28;20504;-68
2022/03/22 13:49:55;;;;;;;23.10;15.57;;;;;;;;;;5062826;28;20249;-67
2022/03/22 13:52:24;;;;;;;23.70;15.25;;;;;;;;;;5062861;28;20513;-68
2022/03/22 13:54:53;;;;;;;21.48;16.05;;;;;;;;;;5062806;28;20427;-68
2022/03/22 13:57:20;;;;;;;19.23;15.02;;;;;;;;;;5062257;28;20243;-68
2022/03/22 13:59:48;;;;;;;28.17;14.95;;;;;;;;;;5062583;28;20193;-68
2022/03/22 14:02:15;;;;;;;21.27;14.52;;;;;;;;;;5062540;28;20248;-68
2022/03/22 14:04:41;;;;;;;18.23;13.88;;;;;;;;;;5062663;28;20197;-68
2022/03/22 14:07:07;;;;;;;16.83;13.73;;;;;;;;;;5062260;28;20268;-68
2022/03/22 14:09:33;;;;;;;15.77;13.48;;;;;;;;;;5062535;28;20216;-68
2022/03/22 14:12:00;;;;;;;18.50;13.82;;;;;;;;;;5061600;28;20197;-68
2022/03/22 14:14:26;;;;;;;18.77;12.38;;;;;;;;;;5062378;28;20207;-68
2022/03/22 14:16:54;;;;;;;15.02;12.43;;;;;;;;;;5062429;28;20235;-68
2022/03/22 14:19:20;;;;;;;15.02;12.85;;;;;;;;;;5062534;28;20538;-68
2022/03/22 14:21:47;;;;;;;16.73;12.18;;;;;;;;;;5062244;28;20388;-68
2022/03/22 14:24:13;;;;;;;18.08;13.98;;;;;;;;;;5062190;28;20508;-68
2022/03/22 14:26:39;;;;;;;17.67;13.90;;;;;;;;;;5062146;28;20550;-68
2022/03/22 14:29:05;;;;;;;16.02;12.68;;;;;;;;;;5062360;28;20428;-68
2022/03/22 14:31:32;;;;;;;20.17;13.82;;;;;;;;;;5062459;28;20235;-68
2022/03/22 14:33:59;;;;;;;19.90;13.48;;;;;;;;;;5062180;28;20201;-68
2022/03/22 14:36:24;;;;;;;15.88;12.38;;;;;;;;;;5061926;28;20200;-68
2022/03/22 14:38:51;;;;;;;19.70;12.82;;;;;;;;;;5061951;28;20254;-68
2022/03/22 14:41:25;;;;;;;19.65;13.00;;;;;;;;;;5062221;28;20204;-68
2022/03/22 14:43:53;;;;;;;24.83;12.98;;;;;;;;;;5062062;28;20228;-68
2022/03/22 14:46:19;;;;;;;19.27;13.70;;;;;;;;;;5062037;28;20509;-68
2022/03/22 14:48:49;;;;;;;24.38;13.98;;;;;;;;;;5062058;28;20200;-68